createdAt,value
2023-04-15T00:07:11.037Z,6.83
2023-04-15T00:17:32.292Z,6.86
2023-04-15T00:27:53.956Z,6.85
2023-04-15T00:38:15.384Z,6.62
2023-04-15T00:48:38.841Z,6.42
2023-04-15T00:59:01.104Z,6.40
2023-04-15T01:09:23.109Z,6.40
2023-04-15T01:19:45.786Z,6.43
2023-04-15T01:30:08.886Z,6.41
2023-04-15T01:40:30.950Z,6.40
2023-04-15T01:50:54.830Z,6.38
2023-04-15T02:01:17.014Z,6.30
2023-04-15T02:11:39.311Z,6.23
2023-04-15T02:22:01.684Z,6.14
2023-04-15T02:32:24.482Z,6.04
2023-04-15T02:42:46.558Z,6.01
2023-04-15T02:53:10.636Z,5.91
2023-04-15T03:03:32.649Z,5.88
2023-04-15T03:13:54.724Z,5.85
2023-04-15T03:24:24.955Z,5.84
2023-04-15T03:34:46.862Z,5.86
2023-04-15T03:45:09.470Z,5.86
2023-04-15T03:55:30.976Z,5.92
2023-04-15T04:05:52.554Z,5.97
2023-04-15T04:16:14.484Z,5.98
2023-04-15T04:26:36.458Z,5.95
2023-04-15T04:36:58.056Z,5.94
2023-04-15T04:47:19.694Z,5.99
2023-04-15T04:57:41.432Z,5.89
2023-04-15T05:08:03.358Z,5.81
2023-04-15T05:18:24.857Z,6.00
2023-04-15T05:28:46.344Z,6.07
2023-04-15T05:39:07.910Z,5.99
2023-04-15T05:49:29.751Z,5.87
2023-04-15T05:59:54.251Z,5.96
2023-04-15T06:10:15.698Z,5.99
2023-04-15T06:20:37.688Z,6.10
2023-04-15T06:30:59.297Z,6.16
2023-04-15T06:41:21.160Z,6.27
2023-04-15T06:51:43.583Z,6.72
2023-04-15T07:02:05.179Z,6.47
2023-04-15T07:12:26.820Z,6.38
2023-04-15T07:22:48.563Z,6.31
2023-04-15T07:33:10.075Z,6.14
2023-04-15T07:43:31.615Z,6.34
2023-04-15T07:53:53.584Z,6.68
2023-04-15T08:04:15.059Z,6.98
2023-04-15T08:14:36.934Z,6.68
2023-04-15T08:24:58.410Z,6.77
2023-04-15T08:35:20.690Z,6.77
2023-04-15T08:45:43.087Z,6.77
2023-04-15T08:56:06.275Z,6.73
2023-04-15T09:06:27.745Z,6.58
2023-04-15T09:17:03.443Z,6.47
2023-04-15T09:27:28.746Z,6.68
2023-04-15T09:37:50.867Z,6.58
2023-04-15T09:48:17.080Z,6.54
2023-04-15T09:58:39.373Z,6.49
2023-04-15T10:09:01.649Z,6.49
2023-04-15T10:19:27.217Z,6.51
2023-04-15T10:29:51.015Z,6.42
2023-04-15T10:40:35.834Z,6.42
2023-04-15T10:50:58.436Z,6.50
2023-04-15T11:01:23.415Z,6.41
2023-04-15T11:12:10.953Z,6.46
2023-04-15T11:22:32.765Z,6.46
2023-04-15T11:32:57.994Z,6.47
2023-04-15T11:43:23.600Z,6.32
2023-04-15T11:53:47.280Z,6.33
2023-04-15T12:04:14.272Z,6.25
2023-04-15T12:14:36.644Z,6.23
2023-04-15T12:24:58.195Z,6.19
2023-04-15T12:35:21.631Z,6.08
2023-04-15T12:45:43.543Z,6.14
2023-04-15T12:56:05.323Z,6.13
2023-04-15T13:06:29.218Z,6.24
2023-04-15T13:16:50.965Z,6.24
2023-04-15T13:27:12.629Z,6.21
2023-04-15T13:37:34.596Z,6.28
2023-04-15T13:47:57.281Z,6.27
2023-04-15T13:58:19.115Z,6.26
2023-04-15T14:08:41.277Z,6.26
2023-04-15T14:19:03.883Z,6.31
2023-04-15T14:29:26.260Z,6.28
2023-04-15T14:39:48.026Z,6.20
2023-04-15T14:50:10.015Z,6.15
2023-04-15T15:00:31.668Z,6.14
2023-04-15T15:10:53.506Z,6.15
2023-04-15T15:21:15.302Z,6.14
2023-04-15T15:31:37.039Z,6.03
2023-04-15T15:41:58.593Z,5.75
2023-04-15T15:52:20.244Z,5.73
2023-04-15T16:13:06.959Z,5.71
2023-04-15T16:23:28.496Z,5.61
2023-04-15T16:33:50.363Z,5.50
2023-04-15T16:44:11.579Z,5.43
2023-04-15T16:54:34.942Z,5.40
2023-04-15T17:04:56.588Z,5.40
2023-04-15T17:15:19.484Z,5.36
2023-04-15T17:25:51.600Z,5.35
2023-04-15T17:36:13.223Z,5.32
2023-04-15T17:46:34.613Z,5.28
2023-04-15T17:56:56.845Z,5.25
2023-04-15T18:07:18.949Z,5.25
2023-04-15T18:17:40.984Z,5.22
2023-04-15T18:28:02.509Z,5.21
2023-04-15T18:38:24.492Z,5.16
2023-04-15T18:48:46.482Z,5.20
2023-04-15T18:59:28.150Z,5.21
2023-04-15T19:09:50.827Z,5.22
2023-04-15T19:20:12.273Z,5.24
2023-04-15T19:30:33.956Z,5.30
